sensor_id;sensor_type;location;lat;lon;timestamp;P1;durP1;ratioP1;P2;durP2;ratioP2
55728;SDS011;41633;39.720;2.910;2022-11-22T00:00:16;11.80;;;2.33;;
55728;SDS011;41633;39.720;2.910;2022-11-22T00:02:43;15.02;;;2.17;;
55728;SDS011;41633;39.720;2.910;2022-11-22T00:05:09;17.40;;;2.80;;
55728;SDS011;41633;39.720;2.910;2022-11-22T00:07:35;17.23;;;2.58;;
55728;SDS011;41633;39.720;2.910;2022-11-22T00:10:02;17.05;;;2.35;;
55728;SDS011;41633;39.720;2.910;2022-11-22T00:12:28;13.30;;;2.33;;
55728;SDS011;41633;39.720;2.910;2022-11-22T00:14:55;11.93;;;1.88;;
55728;SDS011;41633;39.720;2.910;2022-11-22T00:17:21;15.73;;;2.40;;
55728;SDS011;41633;39.720;2.910;2022-11-22T00:22:13;17.15;;;1.80;;
55728;SDS011;41633;39.720;2.910;2022-11-22T00:24:39;11.13;;;2.10;;
55728;SDS011;41633;39.720;2.910;2022-11-22T00:29:31;15.30;;;2.70;;
55728;SDS011;41633;39.720;2.910;2022-11-22T00:31:58;13.88;;;2.35;;
55728;SDS011;41633;39.720;2.910;2022-11-22T00:34:24;11.13;;;1.80;;
55728;SDS011;41633;39.720;2.910;2022-11-22T00:36:50;10.77;;;1.75;;
55728;SDS011;41633;39.720;2.910;2022-11-22T00:39:16;12.50;;;2.25;;
55728;SDS011;41633;39.720;2.910;2022-11-22T00:41:42;11.27;;;2.03;;
55728;SDS011;41633;39.720;2.910;2022-11-22T00:44:08;10.98;;;1.50;;
55728;SDS011;41633;39.720;2.910;2022-11-22T00:46:34;14.10;;;2.05;;
55728;SDS011;41633;39.720;2.910;2022-11-22T00:49:00;14.30;;;2.38;;
55728;SDS011;41633;39.720;2.910;2022-11-22T00:51:27;11.18;;;1.60;;
55728;SDS011;41633;39.720;2.910;2022-11-22T00:53:53;11.15;;;1.58;;
55728;SDS011;41633;39.720;2.910;2022-11-22T00:56:23;15.27;;;2.33;;
55728;SDS011;41633;39.720;2.910;2022-11-22T00:58:50;17.52;;;2.58;;
55728;SDS011;41633;39.720;2.910;2022-11-22T01:01:16;15.18;;;2.20;;
55728;SDS011;41633;39.720;2.910;2022-11-22T01:03:43;20.27;;;2.80;;
55728;SDS011;41633;39.720;2.910;2022-11-22T01:06:09;18.52;;;2.67;;
55728;SDS011;41633;39.720;2.910;2022-11-22T01:08:35;16.40;;;2.35;;
55728;SDS011;41633;39.720;2.910;2022-11-22T01:11:01;17.05;;;2.47;;
55728;SDS011;41633;39.720;2.910;2022-11-22T01:13:28;22.10;;;2.67;;
55728;SDS011;41633;39.720;2.910;2022-11-22T01:16:01;19.35;;;2.20;;
55728;SDS011;41633;39.720;2.910;2022-11-22T01:18:27;23.60;;;3.10;;
55728;SDS011;41633;39.720;2.910;2022-11-22T01:20:53;20.20;;;2.80;;
55728;SDS011;41633;39.720;2.910;2022-11-22T01:23:20;16.70;;;3.22;;
55728;SDS011;41633;39.720;2.910;2022-11-22T01:25:46;16.95;;;2.50;;
55728;SDS011;41633;39.720;2.910;2022-11-22T01:28:13;19.60;;;3.00;;
55728;SDS011;41633;39.720;2.910;2022-11-22T01:30:42;16.42;;;2.47;;
55728;SDS011;41633;39.720;2.910;2022-11-22T01:33:11;18.73;;;2.40;;
55728;SDS011;41633;39.720;2.910;2022-11-22T01:35:37;17.35;;;2.70;;
55728;SDS011;41633;39.720;2.910;2022-11-22T01:38:03;16.70;;;2.38;;
55728;SDS011;41633;39.720;2.910;2022-11-22T01:40:29;14.00;;;2.28;;
55728;SDS011;41633;39.720;2.910;2022-11-22T01:42:57;15.63;;;2.85;;
55728;SDS011;41633;39.720;2.910;2022-11-22T01:48:03;15.35;;;2.35;;
55728;SDS011;41633;39.720;2.910;2022-11-22T01:50:32;13.35;;;2.47;;
55728;SDS011;41633;39.720;2.910;2022-11-22T01:52:59;14.90;;;2.40;;
55728;SDS011;41633;39.720;2.910;2022-11-22T01:55:27;15.23;;;2.63;;
55728;SDS011;41633;39.720;2.910;2022-11-22T01:57:53;18.95;;;2.95;;
55728;SDS011;41633;39.720;2.910;2022-11-22T02:00:19;16.38;;;2.78;;
55728;SDS011;41633;39.720;2.910;2022-11-22T02:02:46;14.45;;;2.17;;
55728;SDS011;41633;39.720;2.910;2022-11-22T02:05:17;11.40;;;2.28;;
55728;SDS011;41633;39.720;2.910;2022-11-22T02:10:48;14.57;;;1.80;;
55728;SDS011;41633;39.720;2.910;2022-11-22T02:13:15;15.80;;;2.03;;
55728;SDS011;41633;39.720;2.910;2022-11-22T02:15:46;19.65;;;2.58;;
55728;SDS011;41633;39.720;2.910;2022-11-22T02:18:13;14.23;;;2.50;;
55728;SDS011;41633;39.720;2.910;2022-11-22T02:20:39;16.45;;;2.25;;
55728;SDS011;41633;39.720;2.910;2022-11-22T02:28:11;13.50;;;2.30;;
55728;SDS011;41633;39.720;2.910;2022-11-22T02:30:40;15.98;;;2.30;;
55728;SDS011;41633;39.720;2.910;2022-11-22T02:33:10;13.32;;;2.00;;
55728;SDS011;41633;39.720;2.910;2022-11-22T02:35:36;14.73;;;1.95;;
55728;SDS011;41633;39.720;2.910;2022-11-22T02:40:35;18.27;;;3.00;;
55728;SDS011;41633;39.720;2.910;2022-11-22T02:43:04;15.65;;;2.10;;
55728;SDS011;41633;39.720;2.910;2022-11-22T02:45:30;12.82;;;1.77;;
55728;SDS011;41633;39.720;2.910;2022-11-22T02:48:06;12.30;;;1.90;;
55728;SDS011;41633;39.720;2.910;2022-11-22T02:50:33;8.77;;;1.48;;
55728;SDS011;41633;39.720;2.910;2022-11-22T02:52:59;12.48;;;1.60;;
55728;SDS011;41633;39.720;2.910;2022-11-22T02:55:25;13.40;;;1.88;;
55728;SDS011;41633;39.720;2.910;2022-11-22T02:57:52;14.93;;;1.65;;
55728;SDS011;41633;39.720;2.910;2022-11-22T03:00:18;12.90;;;2.08;;
55728;SDS011;41633;39.720;2.910;2022-11-22T03:02:44;11.00;;;1.63;;
55728;SDS011;41633;39.720;2.910;2022-11-22T03:05:10;15.88;;;2.25;;
55728;SDS011;41633;39.720;2.910;2022-11-22T03:07:36;17.95;;;2.58;;
55728;SDS011;41633;39.720;2.910;2022-11-22T03:10:05;12.40;;;1.85;;
55728;SDS011;41633;39.720;2.910;2022-11-22T03:12:35;12.77;;;1.73;;
55728;SDS011;41633;39.720;2.910;2022-11-22T03:15:01;7.25;;;1.08;;
55728;SDS011;41633;39.720;2.910;2022-11-22T03:17:27;10.57;;;1.67;;
55728;SDS011;41633;39.720;2.910;2022-11-22T03:19:53;14.63;;;2.08;;
55728;SDS011;41633;39.720;2.910;2022-11-22T03:22:19;17.48;;;2.15;;
55728;SDS011;41633;39.720;2.910;2022-11-22T03:24:46;20.50;;;2.40;;
55728;SDS011;41633;39.720;2.910;2022-11-22T03:27:32;14.17;;;1.93;;
55728;SDS011;41633;39.720;2.910;2022-11-22T03:29:58;13.98;;;2.13;;
55728;SDS011;41633;39.720;2.910;2022-11-22T03:32:28;14.82;;;2.17;;
55728;SDS011;41633;39.720;2.910;2022-11-22T03:34:54;14.40;;;2.15;;
55728;SDS011;41633;39.720;2.910;2022-11-22T03:37:20;12.88;;;2.15;;
55728;SDS011;41633;39.720;2.910;2022-11-22T03:39:49;12.25;;;1.65;;
55728;SDS011;41633;39.720;2.910;2022-11-22T03:42:16;13.48;;;2.53;;
55728;SDS011;41633;39.720;2.910;2022-11-22T03:44:42;12.07;;;2.17;;
55728;SDS011;41633;39.720;2.910;2022-11-22T03:47:08;10.82;;;1.85;;
55728;SDS011;41633;39.720;2.910;2022-11-22T03:49:36;16.98;;;2.60;;
55728;SDS011;41633;39.720;2.910;2022-11-22T03:52:04;14.18;;;1.98;;
55728;SDS011;41633;39.720;2.910;2022-11-22T03:56:56;13.85;;;2.38;;
55728;SDS011;41633;39.720;2.910;2022-11-22T03:59:22;16.10;;;2.20;;
55728;SDS011;41633;39.720;2.910;2022-11-22T04:01:48;15.55;;;1.88;;
55728;SDS011;41633;39.720;2.910;2022-11-22T04:04:14;18.73;;;3.45;;
55728;SDS011;41633;39.720;2.910;2022-11-22T04:06:40;21.10;;;2.63;;
55728;SDS011;41633;39.720;2.910;2022-11-22T04:09:06;14.48;;;2.47;;
55728;SDS011;41633;39.720;2.910;2022-11-22T04:11:32;18.02;;;2.30;;
55728;SDS011;41633;39.720;2.910;2022-11-22T04:13:58;20.40;;;2.70;;
55728;SDS011;41633;39.720;2.910;2022-11-22T04:16:43;11.70;;;1.70;;
55728;SDS011;41633;39.720;2.910;2022-11-22T04:19:09;14.35;;;1.90;;
55728;SDS011;41633;39.720;2.910;2022-11-22T04:21:35;16.67;;;2.22;;
55728;SDS011;41633;39.720;2.910;2022-11-22T04:24:06;19.95;;;2.17;;
55728;SDS011;41633;39.720;2.910;2022-11-22T04:26:51;12.80;;;2.50;;
55728;SDS011;41633;39.720;2.910;2022-11-22T04:29:17;12.15;;;2.15;;
55728;SDS011;41633;39.720;2.910;2022-11-22T04:31:44;8.90;;;1.25;;
55728;SDS011;41633;39.720;2.910;2022-11-22T04:34:29;12.52;;;1.90;;
55728;SDS011;41633;39.720;2.910;2022-11-22T04:36:55;16.25;;;1.92;;
55728;SDS011;41633;39.720;2.910;2022-11-22T04:39:21;13.07;;;2.00;;
55728;SDS011;41633;39.720;2.910;2022-11-22T04:41:47;10.85;;;1.60;;
55728;SDS011;41633;39.720;2.910;2022-11-22T04:44:36;15.48;;;2.10;;
55728;SDS011;41633;39.720;2.910;2022-11-22T04:47:09;15.63;;;1.85;;
55728;SDS011;41633;39.720;2.910;2022-11-22T04:49:35;10.60;;;1.92;;
55728;SDS011;41633;39.720;2.910;2022-11-22T04:52:01;17.48;;;2.38;;
55728;SDS011;41633;39.720;2.910;2022-11-22T04:54:47;12.95;;;1.70;;
55728;SDS011;41633;39.720;2.910;2022-11-22T04:57:13;14.00;;;1.92;;
55728;SDS011;41633;39.720;2.910;2022-11-22T04:59:39;13.10;;;1.85;;
55728;SDS011;41633;39.720;2.910;2022-11-22T05:02:05;17.38;;;2.20;;
55728;SDS011;41633;39.720;2.910;2022-11-22T05:04:32;15.88;;;1.67;;
55728;SDS011;41633;39.720;2.910;2022-11-22T05:06:58;12.93;;;2.40;;
55728;SDS011;41633;39.720;2.910;2022-11-22T05:09:24;19.38;;;2.00;;
55728;SDS011;41633;39.720;2.910;2022-11-22T05:11:50;16.50;;;2.45;;
55728;SDS011;41633;39.720;2.910;2022-11-22T05:14:17;16.77;;;2.78;;
55728;SDS011;41633;39.720;2.910;2022-11-22T05:16:43;18.63;;;2.83;;
55728;SDS011;41633;39.720;2.910;2022-11-22T05:19:09;13.88;;;2.20;;
55728;SDS011;41633;39.720;2.910;2022-11-22T05:21:35;23.42;;;2.38;;
55728;SDS011;41633;39.720;2.910;2022-11-22T05:24:02;15.00;;;2.53;;
55728;SDS011;41633;39.720;2.910;2022-11-22T05:26:29;13.65;;;2.00;;
55728;SDS011;41633;39.720;2.910;2022-11-22T05:28:55;15.52;;;2.40;;
55728;SDS011;41633;39.720;2.910;2022-11-22T05:31:25;16.75;;;2.67;;
55728;SDS011;41633;39.720;2.910;2022-11-22T05:33:52;13.75;;;2.38;;
55728;SDS011;41633;39.720;2.910;2022-11-22T05:36:19;16.35;;;2.22;;
55728;SDS011;41633;39.720;2.910;2022-11-22T05:38:46;12.18;;;2.00;;
55728;SDS011;41633;39.720;2.910;2022-11-22T05:41:13;14.43;;;2.22;;
55728;SDS011;41633;39.720;2.910;2022-11-22T05:43:40;17.20;;;1.83;;
55728;SDS011;41633;39.720;2.910;2022-11-22T05:46:19;13.48;;;1.90;;
55728;SDS011;41633;39.720;2.910;2022-11-22T05:48:46;17.40;;;1.98;;
55728;SDS011;41633;39.720;2.910;2022-11-22T05:51:15;17.70;;;2.40;;
55728;SDS011;41633;39.720;2.910;2022-11-22T05:53:42;13.93;;;2.45;;
55728;SDS011;41633;39.720;2.910;2022-11-22T05:56:09;13.07;;;1.88;;
55728;SDS011;41633;39.720;2.910;2022-11-22T05:58:35;16.65;;;2.50;;
55728;SDS011;41633;39.720;2.910;2022-11-22T06:03:28;14.55;;;2.22;;
55728;SDS011;41633;39.720;2.910;2022-11-22T06:05:54;13.32;;;2.03;;
55728;SDS011;41633;39.720;2.910;2022-11-22T06:08:20;10.10;;;1.52;;
55728;SDS011;41633;39.720;2.910;2022-11-22T06:10:46;8.48;;;1.88;;
55728;SDS011;41633;39.720;2.910;2022-11-22T06:15:38;12.93;;;2.17;;
55728;SDS011;41633;39.720;2.910;2022-11-22T06:18:04;14.38;;;2.03;;
55728;SDS011;41633;39.720;2.910;2022-11-22T06:20:31;11.57;;;2.28;;
55728;SDS011;41633;39.720;2.910;2022-11-22T06:22:57;10.40;;;1.55;;
55728;SDS011;41633;39.720;2.910;2022-11-22T06:27:49;14.05;;;2.20;;
55728;SDS011;41633;39.720;2.910;2022-11-22T06:30:16;12.25;;;1.77;;
55728;SDS011;41633;39.720;2.910;2022-11-22T06:32:42;12.15;;;2.05;;
55728;SDS011;41633;39.720;2.910;2022-11-22T06:35:08;16.58;;;2.10;;
55728;SDS011;41633;39.720;2.910;2022-11-22T06:37:34;13.98;;;2.55;;
55728;SDS011;41633;39.720;2.910;2022-11-22T06:40:00;11.82;;;1.80;;
55728;SDS011;41633;39.720;2.910;2022-11-22T06:44:53;12.57;;;1.83;;
55728;SDS011;41633;39.720;2.910;2022-11-22T06:47:19;11.90;;;1.90;;
55728;SDS011;41633;39.720;2.910;2022-11-22T06:49:48;19.10;;;2.13;;
55728;SDS011;41633;39.720;2.910;2022-11-22T06:52:14;15.95;;;2.35;;
55728;SDS011;41633;39.720;2.910;2022-11-22T06:54:40;13.40;;;2.63;;
55728;SDS011;41633;39.720;2.910;2022-11-22T06:57:06;14.80;;;2.38;;
55728;SDS011;41633;39.720;2.910;2022-11-22T06:59:33;15.85;;;2.22;;
55728;SDS011;41633;39.720;2.910;2022-11-22T07:01:59;11.73;;;1.65;;
55728;SDS011;41633;39.720;2.910;2022-11-22T07:04:25;14.77;;;2.13;;
55728;SDS011;41633;39.720;2.910;2022-11-22T07:06:51;14.88;;;2.05;;
55728;SDS011;41633;39.720;2.910;2022-11-22T07:09:18;12.55;;;1.85;;
55728;SDS011;41633;39.720;2.910;2022-11-22T07:11:44;12.00;;;1.88;;
55728;SDS011;41633;39.720;2.910;2022-11-22T07:14:10;19.88;;;2.50;;
55728;SDS011;41633;39.720;2.910;2022-11-22T07:16:37;16.73;;;2.30;;
55728;SDS011;41633;39.720;2.910;2022-11-22T07:19:03;17.80;;;2.05;;
55728;SDS011;41633;39.720;2.910;2022-11-22T07:21:29;18.95;;;2.78;;
55728;SDS011;41633;39.720;2.910;2022-11-22T07:23:56;14.98;;;2.40;;
55728;SDS011;41633;39.720;2.910;2022-11-22T07:26:24;21.63;;;2.70;;
55728;SDS011;41633;39.720;2.910;2022-11-22T07:28:50;17.63;;;2.35;;
55728;SDS011;41633;39.720;2.910;2022-11-22T07:31:16;14.50;;;2.03;;
55728;SDS011;41633;39.720;2.910;2022-11-22T07:33:43;17.10;;;2.47;;
55728;SDS011;41633;39.720;2.910;2022-11-22T07:36:10;16.55;;;1.95;;
55728;SDS011;41633;39.720;2.910;2022-11-22T07:38:37;13.38;;;2.00;;
55728;SDS011;41633;39.720;2.910;2022-11-22T07:41:04;14.73;;;2.13;;
55728;SDS011;41633;39.720;2.910;2022-11-22T07:43:30;17.20;;;1.83;;
55728;SDS011;41633;39.720;2.910;2022-11-22T07:45:57;14.82;;;2.25;;
55728;SDS011;41633;39.720;2.910;2022-11-22T07:48:24;9.88;;;1.60;;
55728;SDS011;41633;39.720;2.910;2022-11-22T07:50:50;16.98;;;2.95;;
55728;SDS011;41633;39.720;2.910;2022-11-22T07:53:16;13.68;;;1.90;;
55728;SDS011;41633;39.720;2.910;2022-11-22T07:55:43;13.55;;;2.20;;
55728;SDS011;41633;39.720;2.910;2022-11-22T07:58:09;14.00;;;2.17;;
55728;SDS011;41633;39.720;2.910;2022-11-22T08:00:35;11.95;;;2.00;;
55728;SDS011;41633;39.720;2.910;2022-11-22T08:03:01;14.10;;;2.67;;
55728;SDS011;41633;39.720;2.910;2022-11-22T08:05:27;10.98;;;2.20;;
55728;SDS011;41633;39.720;2.910;2022-11-22T08:07:53;16.42;;;2.55;;
55728;SDS011;41633;39.720;2.910;2022-11-22T08:10:20;13.05;;;2.00;;
55728;SDS011;41633;39.720;2.910;2022-11-22T08:12:47;13.35;;;2.00;;
55728;SDS011;41633;39.720;2.910;2022-11-22T08:15:15;17.90;;;2.30;;
55728;SDS011;41633;39.720;2.910;2022-11-22T08:17:47;12.05;;;2.20;;
55728;SDS011;41633;39.720;2.910;2022-11-22T08:20:17;14.95;;;2.30;;
55728;SDS011;41633;39.720;2.910;2022-11-22T08:22:45;12.60;;;2.00;;
55728;SDS011;41633;39.720;2.910;2022-11-22T08:25:19;10.63;;;1.73;;
55728;SDS011;41633;39.720;2.910;2022-11-22T08:27:49;12.57;;;1.98;;
55728;SDS011;41633;39.720;2.910;2022-11-22T08:30:15;14.63;;;2.22;;
55728;SDS011;41633;39.720;2.910;2022-11-22T08:32:41;13.45;;;2.17;;
55728;SDS011;41633;39.720;2.910;2022-11-22T08:35:08;10.10;;;1.95;;
55728;SDS011;41633;39.720;2.910;2022-11-22T08:37:34;13.82;;;2.10;;
55728;SDS011;41633;39.720;2.910;2022-11-22T08:40:00;13.48;;;1.98;;
55728;SDS011;41633;39.720;2.910;2022-11-22T08:42:26;16.90;;;2.28;;
55728;SDS011;41633;39.720;2.910;2022-11-22T08:44:52;14.13;;;2.40;;
55728;SDS011;41633;39.720;2.910;2022-11-22T08:47:19;15.90;;;2.15;;
55728;SDS011;41633;39.720;2.910;2022-11-22T08:49:45;16.70;;;2.25;;
55728;SDS011;41633;39.720;2.910;2022-11-22T08:52:11;12.20;;;2.25;;
55728;SDS011;41633;39.720;2.910;2022-11-22T08:54:37;13.70;;;1.83;;
55728;SDS011;41633;39.720;2.910;2022-11-22T08:57:03;10.90;;;1.92;;
55728;SDS011;41633;39.720;2.910;2022-11-22T08:59:30;10.85;;;1.75;;
55728;SDS011;41633;39.720;2.910;2022-11-22T09:01:56;18.45;;;2.53;;
55728;SDS011;41633;39.720;2.910;2022-11-22T09:04:22;15.98;;;2.03;;
55728;SDS011;41633;39.720;2.910;2022-11-22T09:06:48;9.70;;;1.63;;
55728;SDS011;41633;39.720;2.910;2022-11-22T09:09:14;13.00;;;2.22;;
55728;SDS011;41633;39.720;2.910;2022-11-22T09:14:06;10.07;;;1.77;;
55728;SDS011;41633;39.720;2.910;2022-11-22T09:16:32;11.52;;;1.60;;
55728;SDS011;41633;39.720;2.910;2022-11-22T09:18:58;8.90;;;1.70;;
55728;SDS011;41633;39.720;2.910;2022-11-22T09:21:24;18.17;;;2.10;;
55728;SDS011;41633;39.720;2.910;2022-11-22T09:23:51;11.13;;;1.80;;
55728;SDS011;41633;39.720;2.910;2022-11-22T09:26:22;13.25;;;2.10;;
55728;SDS011;41633;39.720;2.910;2022-11-22T09:28:51;13.13;;;2.30;;
55728;SDS011;41633;39.720;2.910;2022-11-22T09:31:20;11.85;;;2.20;;
55728;SDS011;41633;39.720;2.910;2022-11-22T09:33:46;10.18;;;1.67;;
55728;SDS011;41633;39.720;2.910;2022-11-22T09:36:16;9.77;;;1.58;;
55728;SDS011;41633;39.720;2.910;2022-11-22T09:38:46;9.63;;;1.75;;
55728;SDS011;41633;39.720;2.910;2022-11-22T09:48:56;12.07;;;2.10;;
55728;SDS011;41633;39.720;2.910;2022-11-22T09:51:26;11.18;;;2.00;;
55728;SDS011;41633;39.720;2.910;2022-11-22T09:53:56;12.57;;;1.70;;
55728;SDS011;41633;39.720;2.910;2022-11-22T09:56:25;11.52;;;1.65;;
55728;SDS011;41633;39.720;2.910;2022-11-22T09:59:03;8.45;;;1.50;;
55728;SDS011;41633;39.720;2.910;2022-11-22T10:03:59;11.63;;;1.85;;
55728;SDS011;41633;39.720;2.910;2022-11-22T10:06:27;13.00;;;1.92;;
55728;SDS011;41633;39.720;2.910;2022-11-22T10:14:08;9.23;;;1.60;;
55728;SDS011;41633;39.720;2.910;2022-11-22T10:16:37;10.90;;;1.90;;
55728;SDS011;41633;39.720;2.910;2022-11-22T10:19:13;12.30;;;2.40;;
55728;SDS011;41633;39.720;2.910;2022-11-22T10:21:40;9.10;;;1.88;;
55728;SDS011;41633;39.720;2.910;2022-11-22T10:24:10;11.93;;;2.08;;
55728;SDS011;41633;39.720;2.910;2022-11-22T10:26:39;12.82;;;2.20;;
55728;SDS011;41633;39.720;2.910;2022-11-22T10:29:21;12.02;;;1.90;;
55728;SDS011;41633;39.720;2.910;2022-11-22T10:46:49;6.80;;;1.45;;
55728;SDS011;41633;39.720;2.910;2022-11-22T10:49:35;9.60;;;1.75;;
55728;SDS011;41633;39.720;2.910;2022-11-22T11:02:33;12.00;;;1.80;;
55728;SDS011;41633;39.720;2.910;2022-11-22T11:05:01;12.40;;;1.80;;
55728;SDS011;41633;39.720;2.910;2022-11-22T11:07:30;8.57;;;1.88;;
55728;SDS011;41633;39.720;2.910;2022-11-22T11:09:57;8.10;;;1.80;;
55728;SDS011;41633;39.720;2.910;2022-11-22T11:12:35;12.35;;;1.85;;
55728;SDS011;41633;39.720;2.910;2022-11-22T11:15:04;6.50;;;1.30;;
55728;SDS011;41633;39.720;2.910;2022-11-22T11:17:32;9.55;;;1.48;;
55728;SDS011;41633;39.720;2.910;2022-11-22T11:19:59;8.77;;;1.50;;
55728;SDS011;41633;39.720;2.910;2022-11-22T11:22:27;10.95;;;1.98;;
55728;SDS011;41633;39.720;2.910;2022-11-22T11:24:55;10.30;;;2.15;;
55728;SDS011;41633;39.720;2.910;2022-11-22T11:27:21;8.73;;;1.85;;
55728;SDS011;41633;39.720;2.910;2022-11-22T11:30:01;9.45;;;1.58;;
55728;SDS011;41633;39.720;2.910;2022-11-22T11:32:28;9.57;;;1.85;;
55728;SDS011;41633;39.720;2.910;2022-11-22T11:34:59;10.80;;;1.77;;
55728;SDS011;41633;39.720;2.910;2022-11-22T11:37:33;9.38;;;1.88;;
55728;SDS011;41633;39.720;2.910;2022-11-22T11:40:00;9.07;;;1.77;;
55728;SDS011;41633;39.720;2.910;2022-11-22T11:42:28;10.13;;;2.10;;
55728;SDS011;41633;39.720;2.910;2022-11-22T11:45:17;8.25;;;1.40;;
55728;SDS011;41633;39.720;2.910;2022-11-22T11:47:40;7.47;;;1.25;;
55728;SDS011;41633;39.720;2.910;2022-11-22T11:50:20;10.38;;;1.70;;
55728;SDS011;41633;39.720;2.910;2022-11-22T11:53:04;6.72;;;1.25;;
55728;SDS011;41633;39.720;2.910;2022-11-22T11:55:32;9.27;;;1.42;;
55728;SDS011;41633;39.720;2.910;2022-11-22T11:58:02;9.00;;;2.08;;
55728;SDS011;41633;39.720;2.910;2022-11-22T12:00:36;7.57;;;1.60;;
55728;SDS011;41633;39.720;2.910;2022-11-22T12:03:07;9.77;;;1.65;;
55728;SDS011;41633;39.720;2.910;2022-11-22T12:05:33;6.05;;;1.45;;
55728;SDS011;41633;39.720;2.910;2022-11-22T12:08:00;6.70;;;1.33;;
55728;SDS011;41633;39.720;2.910;2022-11-22T12:13:12;5.80;;;1.00;;
55728;SDS011;41633;39.720;2.910;2022-11-22T12:15:55;7.35;;;1.58;;
55728;SDS011;41633;39.720;2.910;2022-11-22T12:25:55;9.82;;;1.50;;
55728;SDS011;41633;39.720;2.910;2022-11-22T12:28:22;6.97;;;1.30;;
55728;SDS011;41633;39.720;2.910;2022-11-22T12:30:51;8.10;;;1.80;;
55728;SDS011;41633;39.720;2.910;2022-11-22T12:33:20;6.22;;;1.33;;
55728;SDS011;41633;39.720;2.910;2022-11-22T12:35:49;9.13;;;1.80;;
55728;SDS011;41633;39.720;2.910;2022-11-22T12:38:29;7.00;;;1.30;;
55728;SDS011;41633;39.720;2.910;2022-11-22T12:40:58;8.60;;;1.50;;
55728;SDS011;41633;39.720;2.910;2022-11-22T12:45:52;6.75;;;1.30;;
55728;SDS011;41633;39.720;2.910;2022-11-22T12:48:20;5.63;;;1.10;;
55728;SDS011;41633;39.720;2.910;2022-11-22T12:50:52;6.65;;;1.02;;
55728;SDS011;41633;39.720;2.910;2022-11-22T12:53:23;8.63;;;1.30;;
55728;SDS011;41633;39.720;2.910;2022-11-22T12:55:55;7.47;;;1.20;;
55728;SDS011;41633;39.720;2.910;2022-11-22T12:58:26;7.28;;;1.40;;
55728;SDS011;41633;39.720;2.910;2022-11-22T13:03:30;5.40;;;1.35;;
55728;SDS011;41633;39.720;2.910;2022-11-22T13:06:00;6.35;;;1.50;;
55728;SDS011;41633;39.720;2.910;2022-11-22T13:13:37;9.20;;;1.95;;
55728;SDS011;41633;39.720;2.910;2022-11-22T13:16:09;6.47;;;1.40;;
55728;SDS011;41633;39.720;2.910;2022-11-22T13:18:36;6.18;;;1.30;;
55728;SDS011;41633;39.720;2.910;2022-11-22T13:29:09;5.90;;;1.02;;
55728;SDS011;41633;39.720;2.910;2022-11-22T13:31:36;7.10;;;1.67;;
55728;SDS011;41633;39.720;2.910;2022-11-22T13:34:04;7.43;;;1.40;;
55728;SDS011;41633;39.720;2.910;2022-11-22T13:36:45;8.55;;;1.45;;
55728;SDS011;41633;39.720;2.910;2022-11-22T13:39:15;6.50;;;1.40;;
55728;SDS011;41633;39.720;2.910;2022-11-22T13:51:52;9.07;;;1.80;;
55728;SDS011;41633;39.720;2.910;2022-11-22T13:57:48;5.68;;;1.13;;
55728;SDS011;41633;39.720;2.910;2022-11-22T14:02:34;10.20;;;2.10;;
55728;SDS011;41633;39.720;2.910;2022-11-22T14:05:00;7.90;;;1.23;;
55728;SDS011;41633;39.720;2.910;2022-11-22T14:07:33;9.30;;;1.88;;
55728;SDS011;41633;39.720;2.910;2022-11-22T14:10:02;8.98;;;1.33;;
55728;SDS011;41633;39.720;2.910;2022-11-22T14:15:10;8.38;;;1.30;;
55728;SDS011;41633;39.720;2.910;2022-11-22T14:30:19;6.97;;;1.23;;
55728;SDS011;41633;39.720;2.910;2022-11-22T14:33:12;9.27;;;1.08;;
55728;SDS011;41633;39.720;2.910;2022-11-22T14:38:28;6.72;;;1.00;;
55728;SDS011;41633;39.720;2.910;2022-11-22T14:43:39;2.63;;;0.73;;
55728;SDS011;41633;39.720;2.910;2022-11-22T14:46:09;12.27;;;1.50;;
55728;SDS011;41633;39.720;2.910;2022-11-22T14:48:42;5.38;;;1.27;;
55728;SDS011;41633;39.720;2.910;2022-11-22T14:51:18;6.72;;;1.20;;
55728;SDS011;41633;39.720;2.910;2022-11-22T14:53:55;5.77;;;0.70;;
55728;SDS011;41633;39.720;2.910;2022-11-22T14:56:35;5.70;;;0.90;;
55728;SDS011;41633;39.720;2.910;2022-11-22T15:02:15;7.18;;;0.90;;
55728;SDS011;41633;39.720;2.910;2022-11-22T15:07:31;5.28;;;1.05;;
55728;SDS011;41633;39.720;2.910;2022-11-22T15:17:56;5.78;;;1.35;;
55728;SDS011;41633;39.720;2.910;2022-11-22T15:20:56;9.27;;;1.45;;
55728;SDS011;41633;39.720;2.910;2022-11-22T15:23:19;6.10;;;1.48;;
55728;SDS011;41633;39.720;2.910;2022-11-22T15:25:47;7.65;;;1.70;;
55728;SDS011;41633;39.720;2.910;2022-11-22T15:28:18;7.38;;;1.50;;
55728;SDS011;41633;39.720;2.910;2022-11-22T15:30:45;8.05;;;1.50;;
55728;SDS011;41633;39.720;2.910;2022-11-22T15:33:29;6.97;;;1.48;;
55728;SDS011;41633;39.720;2.910;2022-11-22T15:40:48;5.10;;;1.05;;
55728;SDS011;41633;39.720;2.910;2022-11-22T15:43:20;6.07;;;1.33;;
55728;SDS011;41633;39.720;2.910;2022-11-22T15:45:47;8.73;;;1.42;;
55728;SDS011;41633;39.720;2.910;2022-11-22T15:48:15;6.72;;;1.65;;
55728;SDS011;41633;39.720;2.910;2022-11-22T15:53:27;10.10;;;2.13;;
55728;SDS011;41633;39.720;2.910;2022-11-22T15:55:57;9.50;;;1.73;;
55728;SDS011;41633;39.720;2.910;2022-11-22T15:58:25;7.63;;;1.33;;
55728;SDS011;41633;39.720;2.910;2022-11-22T16:00:52;9.60;;;1.33;;
55728;SDS011;41633;39.720;2.910;2022-11-22T16:03:23;9.68;;;1.70;;
55728;SDS011;41633;39.720;2.910;2022-11-22T16:05:50;6.88;;;1.63;;
55728;SDS011;41633;39.720;2.910;2022-11-22T16:08:18;9.15;;;1.63;;
55728;SDS011;41633;39.720;2.910;2022-11-22T16:13:11;7.65;;;1.42;;
55728;SDS011;41633;39.720;2.910;2022-11-22T16:15:37;8.13;;;1.52;;
55728;SDS011;41633;39.720;2.910;2022-11-22T16:20:34;8.18;;;1.65;;
55728;SDS011;41633;39.720;2.910;2022-11-22T16:25:30;9.85;;;1.50;;
55728;SDS011;41633;39.720;2.910;2022-11-22T16:27:57;12.30;;;2.58;;
55728;SDS011;41633;39.720;2.910;2022-11-22T16:30:27;8.43;;;1.73;;
55728;SDS011;41633;39.720;2.910;2022-11-22T16:32:53;9.90;;;1.60;;
55728;SDS011;41633;39.720;2.910;2022-11-22T16:35:22;10.23;;;1.88;;
55728;SDS011;41633;39.720;2.910;2022-11-22T16:37:48;8.43;;;1.40;;
55728;SDS011;41633;39.720;2.910;2022-11-22T16:40:14;9.23;;;1.60;;
55728;SDS011;41633;39.720;2.910;2022-11-22T16:42:41;7.28;;;1.45;;
55728;SDS011;41633;39.720;2.910;2022-11-22T16:45:14;8.20;;;2.03;;
55728;SDS011;41633;39.720;2.910;2022-11-22T16:47:41;7.82;;;1.75;;
55728;SDS011;41633;39.720;2.910;2022-11-22T16:52:36;10.18;;;2.67;;
55728;SDS011;41633;39.720;2.910;2022-11-22T16:55:03;9.38;;;1.85;;
55728;SDS011;41633;39.720;2.910;2022-11-22T16:59:55;11.82;;;2.90;;
55728;SDS011;41633;39.720;2.910;2022-11-22T17:02:21;9.48;;;2.60;;
55728;SDS011;41633;39.720;2.910;2022-11-22T17:04:47;7.95;;;1.88;;
55728;SDS011;41633;39.720;2.910;2022-11-22T17:07:14;11.07;;;2.20;;
55728;SDS011;41633;39.720;2.910;2022-11-22T17:12:13;8.05;;;1.90;;
55728;SDS011;41633;39.720;2.910;2022-11-22T17:14:40;11.40;;;2.10;;
55728;SDS011;41633;39.720;2.910;2022-11-22T17:17:09;9.00;;;1.75;;
55728;SDS011;41633;39.720;2.910;2022-11-22T17:19:36;9.23;;;1.75;;
55728;SDS011;41633;39.720;2.910;2022-11-22T17:22:02;11.68;;;1.98;;
55728;SDS011;41633;39.720;2.910;2022-11-22T17:24:30;10.88;;;1.90;;
55728;SDS011;41633;39.720;2.910;2022-11-22T17:26:57;14.43;;;2.17;;
55728;SDS011;41633;39.720;2.910;2022-11-22T17:31:49;12.98;;;1.92;;
55728;SDS011;41633;39.720;2.910;2022-11-22T17:34:15;8.75;;;2.28;;
55728;SDS011;41633;39.720;2.910;2022-11-22T17:39:09;10.82;;;1.80;;
55728;SDS011;41633;39.720;2.910;2022-11-22T17:41:36;11.55;;;2.17;;
55728;SDS011;41633;39.720;2.910;2022-11-22T17:44:02;8.60;;;2.17;;